createdAt,value
2022-09-07T00:00:00.829Z,101038.09
2022-09-07T00:01:02.914Z,101039.97
2022-09-07T00:02:07.520Z,101041.81
2022-09-07T00:03:09.907Z,101038.38
2022-09-07T00:04:14.590Z,101028.72
2022-09-07T00:05:16.663Z,101027.00
2022-09-07T00:06:21.136Z,101025.31
2022-09-07T00:07:23.099Z,101028.84
2022-09-07T00:08:28.489Z,101019.22
2022-09-07T00:09:30.439Z,101022.81
2022-09-07T00:10:35.167Z,101015.88
2022-09-07T00:11:37.166Z,101015.97
2022-09-07T00:12:42.359Z,101018.75
2022-09-07T00:13:45.191Z,101014.50
2022-09-07T00:14:49.745Z,101017.28
2022-09-07T00:15:51.817Z,101022.81
2022-09-07T00:16:56.324Z,101016.72
2022-09-07T00:17:58.261Z,101015.09
2022-09-07T00:19:03.627Z,101018.78
2022-09-07T00:20:06.611Z,101018.91
2022-09-07T00:21:11.834Z,101017.28
2022-09-07T00:22:13.723Z,101016.53
2022-09-07T00:23:18.222Z,101014.84
2022-09-07T00:24:20.090Z,101014.06
2022-09-07T00:25:24.989Z,101012.19
2022-09-07T00:26:28.055Z,101011.34
2022-09-07T00:27:32.627Z,101014.06
2022-09-07T00:28:34.671Z,101009.72
2022-09-07T00:29:39.223Z,101005.44
2022-09-07T00:30:42.093Z,101005.50
2022-09-07T00:31:46.664Z,100997.59
2022-09-07T00:32:48.638Z,100994.16
2022-09-07T00:33:53.902Z,101003.03
2022-09-07T00:34:55.846Z,100998.72
2022-09-07T00:36:01.038Z,100999.63
2022-09-07T00:37:02.986Z,100999.69
2022-09-07T00:38:07.473Z,101000.66
2022-09-07T00:39:12.089Z,101004.22
2022-09-07T00:40:13.978Z,100999.78
2022-09-07T00:41:19.054Z,101005.09
2022-09-07T00:42:21.684Z,100995.34
2022-09-07T00:43:33.841Z,100999.78
2022-09-07T00:44:44.874Z,101000.66
2022-09-07T00:45:49.524Z,101005.16
2022-09-07T00:46:51.437Z,101009.66
2022-09-07T00:47:59.361Z,101003.56
2022-09-07T00:49:01.214Z,101001.00
2022-09-07T00:50:07.687Z,101001.09
2022-09-07T00:51:12.958Z,100999.44
2022-09-07T00:52:14.970Z,100999.50
2022-09-07T00:53:32.911Z,100996.91
2022-09-07T00:54:37.344Z,101000.53
2022-09-07T00:55:42.094Z,100995.31
2022-09-07T00:56:44.389Z,101001.53
2022-09-07T00:57:49.950Z,100997.25
2022-09-07T00:58:51.859Z,100990.31
2022-09-07T00:59:57.721Z,100990.31
2022-09-07T01:00:59.623Z,100992.16
2022-09-07T01:02:04.286Z,100989.56
2022-09-07T01:03:06.352Z,100981.66
2022-09-07T01:04:11.033Z,100987.94
2022-09-07T01:05:23.933Z,100990.59
2022-09-07T01:06:38.444Z,100973.44
2022-09-07T01:07:40.524Z,100993.44
2022-09-07T01:08:45.321Z,100991.72
2022-09-07T01:09:47.380Z,100989.97
2022-09-07T01:10:51.951Z,101000.56
2022-09-07T01:11:54.515Z,100990.91
2022-09-07T01:12:59.006Z,100991.81
2022-09-07T01:14:00.954Z,100992.84
2022-09-07T01:15:05.627Z,100989.34
2022-09-07T01:16:27.891Z,100992.03
2022-09-07T01:17:54.186Z,100994.69
2022-09-07T01:19:14.310Z,100996.53
2022-09-07T01:20:35.463Z,100996.56
2022-09-07T01:21:51.674Z,100988.72
2022-09-07T01:22:59.669Z,100997.53
2022-09-07T01:24:30.530Z,100984.34
2022-09-07T01:25:35.548Z,100985.34
2022-09-07T01:26:46.447Z,100992.38
2022-09-07T01:27:57.133Z,100990.63
2022-09-07T01:29:21.924Z,100986.28
2022-09-07T01:30:24.194Z,100987.22
2022-09-07T01:31:31.351Z,100986.34
2022-09-07T01:32:51.869Z,100982.91
2022-09-07T01:34:02.622Z,100984.75
2022-09-07T01:35:05.459Z,100984.84
2022-09-07T01:36:09.906Z,100980.53
2022-09-07T01:37:24.105Z,100984.09
2022-09-07T01:38:28.733Z,100977.97
2022-09-07T01:39:33.033Z,100976.28
2022-09-07T01:40:49.861Z,100978.88
2022-09-07T01:42:10.675Z,100979.00
2022-09-07T01:43:20.541Z,100979.00
2022-09-07T01:44:54.048Z,100979.09
2022-09-07T01:45:56.035Z,100975.63
2022-09-07T01:47:00.581Z,100979.19
2022-09-07T01:48:04.927Z,100981.03
2022-09-07T01:49:12.137Z,100986.31
2022-09-07T01:50:24.125Z,100980.16
2022-09-07T01:51:30.318Z,100983.72
2022-09-07T01:52:43.904Z,100982.84
2022-09-07T01:53:51.580Z,100988.16
2022-09-07T01:55:03.645Z,100989.00
2022-09-07T01:56:06.939Z,100980.28
2022-09-07T01:57:12.900Z,100975.91
2022-09-07T01:58:28.713Z,100979.47
2022-09-07T01:59:34.998Z,100978.59
2022-09-07T02:00:37.876Z,100975.94
2022-09-07T02:01:44.241Z,100974.22
2022-09-07T02:02:48.354Z,100978.59
2022-09-07T02:03:55.548Z,100976.81
2022-09-07T02:05:03.658Z,100977.69
2022-09-07T02:06:10.011Z,100979.41
2022-09-07T02:07:15.024Z,100975.91
2022-09-07T02:08:21.069Z,100982.97
2022-09-07T02:09:28.437Z,100988.28
2022-09-07T02:10:36.126Z,100974.22
2022-09-07T02:11:43.491Z,100977.78
2022-09-07T02:12:55.953Z,100974.22
2022-09-07T02:14:26.358Z,100970.75
2022-09-07T02:15:30.125Z,100972.56
2022-09-07T02:16:34.873Z,100968.19
2022-09-07T02:17:38.084Z,100970.03
2022-09-07T02:18:47.466Z,100965.63
2022-09-07T02:19:50.786Z,100962.19
2022-09-07T02:20:56.470Z,100964.94
2022-09-07T02:22:03.854Z,100963.25
2022-09-07T02:23:09.851Z,100958.06
2022-09-07T02:24:25.542Z,100965.13
2022-09-07T02:25:32.258Z,100951.34
2022-09-07T02:26:34.150Z,100963.56
2022-09-07T02:27:40.779Z,100959.22
2022-09-07T02:28:42.698Z,100965.47
2022-09-07T02:29:47.173Z,100968.25
2022-09-07T02:30:49.091Z,100966.56
2022-09-07T02:31:53.827Z,100963.09
2022-09-07T02:32:56.407Z,100960.53
2022-09-07T02:34:02.080Z,100957.97
2022-09-07T02:35:04.545Z,100956.28
2022-09-07T02:36:09.215Z,100961.66
2022-09-07T02:37:11.106Z,100956.41
2022-09-07T02:38:15.703Z,100961.75
2022-09-07T02:39:17.884Z,100952.09
2022-09-07T02:40:22.426Z,100959.19
2022-09-07T02:41:31.827Z,100951.25
2022-09-07T02:42:36.616Z,100956.66
2022-09-07T02:43:38.503Z,100936.78
2022-09-07T02:44:45.660Z,100950.53
2022-09-07T02:45:58.554Z,100949.63
2022-09-07T02:47:14.622Z,100942.59
2022-09-07T02:48:23.951Z,100951.41
2022-09-07T02:49:25.913Z,100942.59
2022-09-07T02:50:32.683Z,100940.00
2022-09-07T02:51:37.149Z,100942.69
2022-09-07T02:52:53.865Z,100936.53
2022-09-07T02:54:04.966Z,100932.16
2022-09-07T02:55:12.191Z,100933.94
2022-09-07T02:56:14.063Z,100929.56
2022-09-07T02:57:18.501Z,100926.91
2022-09-07T02:58:30.963Z,100926.03
2022-09-07T02:59:40.017Z,100933.06
2022-09-07T03:01:02.155Z,100925.19
2022-09-07T03:02:25.810Z,100927.81
2022-09-07T03:03:37.284Z,100933.94
2022-09-07T03:04:57.738Z,100926.00
2022-09-07T03:06:00.322Z,100926.81
2022-09-07T03:07:09.500Z,100924.19
2022-09-07T03:08:23.663Z,100923.28
2022-09-07T03:09:26.685Z,100914.50
2022-09-07T03:10:31.916Z,100918.94
2022-09-07T03:11:36.077Z,100921.63
2022-09-07T03:12:41.438Z,100916.34
2022-09-07T03:13:43.266Z,100922.53
2022-09-07T03:14:47.891Z,100911.09
2022-09-07T03:15:55.032Z,100919.88
2022-09-07T03:17:00.354Z,100915.47
2022-09-07T03:18:02.180Z,100921.63
2022-09-07T03:19:06.583Z,100913.69
2022-09-07T03:20:09.012Z,100925.97
2022-09-07T03:21:13.551Z,100918.88
2022-09-07T03:22:15.489Z,100915.38
2022-09-07T03:23:19.909Z,100915.34
2022-09-07T03:24:21.737Z,100919.72
2022-09-07T03:25:26.154Z,100920.59
2022-09-07T03:26:28.177Z,100924.06
2022-09-07T03:27:33.432Z,100926.63
2022-09-07T03:28:35.328Z,100919.53
2022-09-07T03:29:41.964Z,100923.06
2022-09-07T03:30:44.560Z,100915.94
2022-09-07T03:31:49.101Z,100926.53
2022-09-07T03:32:51.210Z,100921.25
2022-09-07T03:33:55.835Z,100913.31
2022-09-07T03:34:57.676Z,100917.69
2022-09-07T03:36:03.002Z,100917.63
2022-09-07T03:37:07.601Z,100916.78
2022-09-07T03:38:09.454Z,100917.63
2022-09-07T03:39:14.288Z,100925.56
2022-09-07T03:41:39.914Z,100925.56
2022-09-07T03:42:41.894Z,100919.41
2022-09-07T03:43:46.402Z,100912.38
2022-09-07T03:44:49.571Z,100915.94
2022-09-07T03:45:54.024Z,100928.25
2022-09-07T03:46:55.923Z,100916.78
2022-09-07T03:48:00.432Z,100927.41
2022-09-07T03:49:02.313Z,100926.56
2022-09-07T03:50:07.167Z,100915.25
2022-09-07T03:51:10.189Z,100924.91
2022-09-07T03:52:14.636Z,100929.38
2022-09-07T03:53:16.518Z,100925.91
2022-09-07T03:54:21.002Z,100932.97
2022-09-07T03:55:22.830Z,100925.09
2022-09-07T03:56:27.570Z,100930.38
2022-09-07T03:57:29.371Z,100921.63
2022-09-07T03:58:34.175Z,100926.00
2022-09-07T03:59:38.617Z,100927.81
2022-09-07T04:00:41.105Z,100933.13
2022-09-07T04:01:45.678Z,100923.44
2022-09-07T04:02:47.596Z,100923.44
2022-09-07T04:03:52.217Z,100928.78
2022-09-07T04:04:54.017Z,100921.72
2022-09-07T04:06:00.774Z,100907.84
2022-09-07T04:07:02.718Z,100916.41
2022-09-07T04:08:07.134Z,100926.00
2022-09-07T04:09:10.042Z,100923.34
2022-09-07T04:10:15.796Z,100924.19
2022-09-07T04:11:18.322Z,100918.84
2022-09-07T04:12:22.778Z,100924.91
2022-09-07T04:13:25.107Z,100923.06
2022-09-07T04:14:29.566Z,100925.56
2022-09-07T04:15:31.459Z,100921.56
2022-09-07T04:16:36.108Z,100921.66
2022-09-07T04:17:38.058Z,100924.72
2022-09-07T04:18:42.706Z,100930.16
2022-09-07T04:19:47.125Z,100933.16
2022-09-07T04:20:50.763Z,100939.91
2022-09-07T04:21:55.345Z,100944.38
2022-09-07T04:22:57.187Z,100959.72
2022-09-07T04:24:01.707Z,100962.22
2022-09-07T04:25:03.665Z,100957.06
2022-09-07T04:26:08.202Z,100963.03
2022-09-07T04:27:10.036Z,100958.44
2022-09-07T04:28:14.553Z,100952.06
2022-09-07T04:29:16.430Z,100959.38
2022-09-07T04:30:20.863Z,100949.75
2022-09-07T04:31:22.881Z,100956.72
2022-09-07T04:32:27.341Z,100957.59
2022-09-07T04:33:31.058Z,100959.22
2022-09-07T04:34:35.467Z,100959.09
2022-09-07T04:35:37.811Z,100966.03
2022-09-07T04:36:42.216Z,100964.19
2022-09-07T04:37:44.696Z,100961.53
2022-09-07T04:38:49.545Z,100973.03
2022-09-07T04:39:51.994Z,100958.03
2022-09-07T04:41:16.714Z,100960.81
2022-09-07T04:42:18.641Z,100967.94
2022-09-07T04:43:23.043Z,100962.66
2022-09-07T04:44:24.965Z,100971.56
2022-09-07T04:45:29.373Z,100976.00
2022-09-07T04:46:35.375Z,100969.00
2022-09-07T04:47:39.791Z,100975.25
2022-09-07T04:48:41.648Z,100978.81
2022-09-07T04:49:46.225Z,100979.69
2022-09-07T04:50:48.069Z,100976.16
2022-09-07T04:51:52.538Z,100976.13
2022-09-07T04:52:54.412Z,100971.66
2022-09-07T04:53:59.644Z,100974.28
2022-09-07T04:55:01.468Z,100975.13
2022-09-07T04:56:06.127Z,100980.31
2022-09-07T04:57:08.840Z,100977.59
2022-09-07T04:58:13.231Z,100975.75
2022-09-07T04:59:15.155Z,100981.81
2022-09-07T05:00:19.840Z,100979.94
2022-09-07T05:01:22.823Z,100980.69
2022-09-07T05:02:27.979Z,100973.47
2022-09-07T05:03:30.486Z,100971.56
2022-09-07T05:04:37.467Z,100966.97
2022-09-07T05:05:39.416Z,100971.22
2022-09-07T05:06:43.835Z,100970.19
2022-09-07T05:07:45.715Z,100970.88
2022-09-07T05:08:51.256Z,100961.75
2022-09-07T05:09:53.096Z,100972.16
2022-09-07T05:10:58.011Z,100972.00
2022-09-07T05:11:59.954Z,100970.00
2022-09-07T05:13:04.482Z,100975.16
2022-09-07T05:14:06.292Z,100975.78
2022-09-07T05:15:10.901Z,100976.53
2022-09-07T05:16:14.294Z,100969.16
2022-09-07T05:17:19.462Z,100967.97
2022-09-07T05:18:21.366Z,100973.00
2022-09-07T05:19:25.799Z,100966.63
2022-09-07T05:20:27.742Z,100963.69
2022-09-07T05:21:34.427Z,100964.31
2022-09-07T05:22:41.058Z,100966.78
2022-09-07T05:23:45.613Z,100970.84
2022-09-07T05:24:47.521Z,100962.63
2022-09-07T05:25:51.966Z,100972.88
2022-09-07T05:26:53.999Z,100967.19
2022-09-07T05:27:58.398Z,100970.41
2022-09-07T05:31:51.674Z,100974.31
2022-09-07T05:32:53.795Z,100970.44
2022-09-07T05:35:23.489Z,100983.66
2022-09-07T05:36:28.556Z,100973.41
2022-09-07T05:37:33.758Z,100980.03
2022-09-07T05:38:35.991Z,100978.56
2022-09-07T05:39:40.541Z,100984.22
2022-09-07T05:40:43.095Z,100989.00
2022-09-07T05:41:47.605Z,100991.97
2022-09-07T05:42:49.475Z,100994.97
2022-09-07T05:45:18.670Z,100996.31
2022-09-07T05:46:20.822Z,100999.13
2022-09-07T05:47:25.324Z,100993.47
2022-09-07T05:48:27.555Z,100997.28
2022-09-07T05:49:32.889Z,101002.84
2022-09-07T05:50:35.853Z,100997.78
2022-09-07T05:51:40.345Z,100999.78
2022-09-07T05:52:42.712Z,101002.88
2022-09-07T05:53:48.833Z,101004.94
2022-09-07T05:54:50.654Z,101002.44
2022-09-07T05:55:55.203Z,101007.28
2022-09-07T05:56:57.043Z,101007.53
2022-09-07T05:58:01.451Z,100996.13
2022-09-07T05:59:03.791Z,101002.56
2022-09-07T06:00:08.450Z,101001.16
2022-09-07T06:01:13.838Z,101003.19
2022-09-07T06:02:18.422Z,100999.09
2022-09-07T06:03:20.546Z,101011.75
2022-09-07T06:04:25.160Z,101004.97
2022-09-07T06:05:27.030Z,101004.41
2022-09-07T06:06:31.848Z,101010.94
2022-09-07T06:07:33.747Z,101012.97
2022-09-07T06:08:38.672Z,101014.22
2022-09-07T06:11:12.542Z,101013.09
2022-09-07T06:12:14.372Z,101013.28
2022-09-07T06:13:18.864Z,101016.50
2022-09-07T06:14:20.739Z,101013.34
2022-09-07T06:15:25.375Z,101018.22
2022-09-07T06:16:27.347Z,101022.25
2022-09-07T06:17:32.198Z,101013.84
2022-09-07T06:18:34.924Z,101016.78
2022-09-07T06:19:39.464Z,101021.63
2022-09-07T06:20:41.320Z,101011.47
2022-09-07T06:21:45.756Z,100991.47
2022-09-07T06:22:47.718Z,100992.84
2022-09-07T06:23:52.446Z,100988.59
2022-09-07T06:24:54.259Z,100989.94
2022-09-07T06:25:58.736Z,100995.63
2022-09-07T06:27:00.623Z,100992.31
2022-09-07T06:28:05.170Z,100979.66
2022-09-07T06:29:06.975Z,100992.34
2022-09-07T06:30:12.414Z,100990.22
2022-09-07T06:31:17.661Z,100988.94
2022-09-07T06:33:44.660Z,100995.19
2022-09-07T06:34:46.576Z,100998.19
2022-09-07T06:36:04.051Z,100988.03
2022-09-07T06:37:05.902Z,100984.94
2022-09-07T06:38:10.569Z,100995.25
2022-09-07T06:39:12.425Z,100989.56
2022-09-07T06:40:16.931Z,100986.63
2022-09-07T06:42:47.029Z,100984.69
2022-09-07T06:43:50.748Z,100990.50
2022-09-07T06:44:55.470Z,100992.63
2022-09-07T06:47:22.511Z,100988.09
2022-09-07T06:48:27.133Z,100984.09
2022-09-07T06:49:29.022Z,100991.84
2022-09-07T06:50:33.827Z,100992.59
2022-09-07T06:51:35.714Z,100991.41
2022-09-07T06:55:30.504Z,100999.72
2022-09-07T06:56:32.372Z,100999.16
2022-09-07T06:57:36.804Z,100992.56
2022-09-07T06:58:42.303Z,100987.75
2022-09-07T06:59:46.933Z,100991.69
2022-09-07T07:00:48.805Z,100991.38
2022-09-07T07:01:53.217Z,101004.44
2022-09-07T07:02:55.087Z,100999.59
2022-09-07T07:03:59.641Z,101006.44
2022-09-07T07:05:04.123Z,101007.41
2022-09-07T07:06:06.408Z,101004.06
2022-09-07T07:07:14.627Z,101011.66
2022-09-07T07:08:16.543Z,101015.72
2022-09-07T07:09:23.287Z,101016.34
2022-09-07T07:10:25.377Z,101019.53
2022-09-07T07:11:30.521Z,101015.66
2022-09-07T07:13:42.246Z,101013.22
2022-09-07T07:14:45.188Z,101010.19
2022-09-07T07:15:51.534Z,101019.63
2022-09-07T07:16:53.374Z,101023.06
2022-09-07T07:18:02.643Z,101028.09
2022-09-07T07:19:18.042Z,101034.59
2022-09-07T07:20:20.030Z,101030.69
2022-09-07T07:21:24.461Z,101034.09
2022-09-07T07:23:54.348Z,101034.91
2022-09-07T07:24:56.272Z,101026.47
2022-09-07T07:26:07.273Z,101030.75
2022-09-07T07:27:09.099Z,101040.94
2022-09-07T07:29:38.383Z,101038.63
2022-09-07T07:30:40.453Z,101043.53
2022-09-07T07:31:44.954Z,101048.69
2022-09-07T07:32:49.427Z,101043.91
2022-09-07T07:33:55.244Z,101044.50
2022-09-07T07:34:57.067Z,101044.25
2022-09-07T07:36:15.430Z,101052.00
2022-09-07T07:37:17.384Z,101052.59
2022-09-07T07:42:35.739Z,101024.50
2022-09-07T07:43:37.765Z,101023.41
2022-09-07T07:44:42.161Z,101014.31
2022-09-07T07:46:02.519Z,101026.72
2022-09-07T07:47:08.997Z,101015.41
2022-09-07T07:48:12.787Z,101016.75
2022-09-07T07:49:17.134Z,101017.00
2022-09-07T07:50:34.906Z,101013.53
2022-09-07T07:54:28.227Z,101017.09
2022-09-07T07:55:46.005Z,101018.44
2022-09-07T07:56:50.756Z,101010.22
2022-09-07T07:57:52.642Z,101010.84
2022-09-07T07:58:57.062Z,101008.16
2022-09-07T07:59:58.935Z,101012.31
2022-09-07T08:01:04.500Z,101010.22
2022-09-07T08:02:06.817Z,101007.66
2022-09-07T08:03:11.290Z,101010.34
2022-09-07T08:04:15.781Z,101008.50
2022-09-07T08:05:18.472Z,101014.16
2022-09-07T08:06:23.333Z,101010.09
2022-09-07T08:07:27.768Z,101007.00
2022-09-07T08:08:30.318Z,101014.38
2022-09-07T08:09:34.763Z,101000.88
2022-09-07T08:10:36.575Z,101001.97
2022-09-07T08:11:42.274Z,100998.72
2022-09-07T08:12:44.052Z,100998.72
2022-09-07T08:13:49.607Z,101006.47
2022-09-07T08:14:51.480Z,101002.97
2022-09-07T08:15:55.894Z,101004.16
2022-09-07T08:16:57.693Z,100989.41
2022-09-07T08:18:02.414Z,101003.66
2022-09-07T08:19:07.025Z,100991.59
2022-09-07T08:20:09.228Z,100994.88
2022-09-07T08:21:14.597Z,100990.94
2022-09-07T08:22:18.965Z,100993.50
2022-09-07T08:23:20.855Z,100980.72
2022-09-07T08:24:25.793Z,100992.66
2022-09-07T08:25:30.195Z,100990.94
2022-09-07T08:26:34.558Z,100994.06
2022-09-07T08:27:38.925Z,101004.63
2022-09-07T08:28:41.886Z,100987.19
2022-09-07T08:29:46.811Z,100989.41
2022-09-07T08:30:48.584Z,100986.38
2022-09-07T08:31:53.118Z,100987.09
2022-09-07T08:32:54.955Z,100985.78
2022-09-07T08:33:59.351Z,100985.16
2022-09-07T08:35:01.321Z,100980.56
2022-09-07T08:36:07.700Z,100987.00
2022-09-07T08:37:09.486Z,100984.41
2022-09-07T08:38:16.930Z,100985.84
2022-09-07T08:39:23.734Z,100993.56
2022-09-07T08:40:25.507Z,100984.47
2022-09-07T08:41:48.870Z,100973.66
2022-09-07T08:43:22.483Z,100987.91
2022-09-07T08:44:27.551Z,100977.53
2022-09-07T08:45:32.939Z,100970.03
2022-09-07T08:46:41.204Z,100975.28
2022-09-07T08:47:49.345Z,100971.47
2022-09-07T08:48:51.209Z,100979.19
2022-09-07T08:50:02.593Z,100984.34
2022-09-07T08:51:13.079Z,100982.38
2022-09-07T08:52:43.833Z,100968.72
2022-09-07T08:53:46.469Z,100971.00
2022-09-07T08:54:54.767Z,100970.72
2022-09-07T08:56:04.106Z,100959.66
2022-09-07T08:57:21.553Z,100969.47
2022-09-07T08:58:50.677Z,100970.47
2022-09-07T09:00:00.480Z,100976.31
2022-09-07T09:05:17.849Z,100967.41
2022-09-07T09:06:10.830Z,100965.09
2022-09-07T09:06:28.974Z,100965.44
2022-09-07T09:07:58.341Z,100971.81
2022-09-07T09:09:22.522Z,100971.16
2022-09-07T09:10:45.767Z,100967.84
2022-09-07T09:11:55.774Z,100957.69
2022-09-07T09:13:21.638Z,100953.06
2022-09-07T09:14:23.461Z,100952.94
2022-09-07T09:15:31.046Z,100948.53
2022-09-07T09:16:35.735Z,100955.47
2022-09-07T09:17:38.966Z,100959.16
2022-09-07T09:18:43.289Z,100948.47
2022-09-07T09:20:09.555Z,100947.13
2022-09-07T09:21:18.795Z,100937.19
2022-09-07T09:22:25.730Z,100932.66
2022-09-07T09:23:35.605Z,100948.94
2022-09-07T09:24:38.158Z,100940.25
2022-09-07T09:25:42.862Z,100938.81
2022-09-07T09:26:45.888Z,100931.88
2022-09-07T09:27:50.859Z,100937.53
2022-09-07T09:28:52.679Z,100934.94
2022-09-07T09:29:57.131Z,100936.66
2022-09-07T09:30:58.944Z,100925.53
2022-09-07T09:32:03.337Z,100940.34
2022-09-07T09:33:23.919Z,100937.28
2022-09-07T09:34:29.393Z,100940.72
2022-09-07T09:35:37.419Z,100939.03
2022-09-07T09:36:46.426Z,100920.50
2022-09-07T09:37:48.236Z,100928.47
2022-09-07T09:38:52.606Z,100930.78
2022-09-07T09:40:00.584Z,100927.66
2022-09-07T09:41:14.510Z,100935.63
2022-09-07T09:42:17.263Z,100928.22
2022-09-07T09:43:23.259Z,100930.78
2022-09-07T09:44:25.035Z,100930.50
2022-09-07T09:45:30.384Z,100936.09
2022-09-07T09:46:36.028Z,100926.84
2022-09-07T09:47:40.583Z,100932.81
2022-09-07T09:48:45.012Z,100925.13
2022-09-07T09:49:46.795Z,100924.00
2022-09-07T09:52:43.935Z,100916.72
2022-09-07T09:53:46.039Z,100914.44
2022-09-07T09:54:52.015Z,100917.25
2022-09-07T09:55:56.397Z,100906.88
2022-09-07T09:56:58.839Z,100917.38
2022-09-07T10:04:01.446Z,100912.44
2022-09-07T10:05:26.630Z,100912.28
2022-09-07T10:06:31.040Z,100919.84
2022-09-07T10:07:32.971Z,100912.59
2022-09-07T10:08:37.498Z,100915.88
2022-09-07T10:09:39.804Z,100916.31
2022-09-07T10:10:53.210Z,100923.41
2022-09-07T10:12:06.996Z,100909.19
2022-09-07T10:13:12.386Z,100915.44
2022-09-07T10:14:24.084Z,100916.44
2022-09-07T10:15:41.306Z,100908.75
2022-09-07T10:16:44.257Z,100909.75
2022-09-07T10:17:50.641Z,100900.03
2022-09-07T10:18:59.628Z,100910.31
2022-09-07T10:20:15.749Z,100906.59
2022-09-07T10:21:30.215Z,100905.59
2022-09-07T10:22:36.103Z,100901.19
2022-09-07T10:23:40.638Z,100902.28
2022-09-07T10:24:45.104Z,100905.44
2022-09-07T10:25:47.655Z,100908.28
2022-09-07T10:26:52.006Z,100903.56
2022-09-07T10:28:16.591Z,100906.84
2022-09-07T10:29:24.464Z,100904.72
2022-09-07T10:30:28.817Z,100897.25
2022-09-07T10:31:32.022Z,100891.56
2022-09-07T10:32:42.646Z,100900.47
2022-09-07T10:35:34.737Z,100887.75
2022-09-07T10:36:39.322Z,100882.94
2022-09-07T10:37:43.677Z,100882.50
2022-09-07T10:39:14.535Z,100887.47
2022-09-07T10:40:36.150Z,100884.59
2022-09-07T10:41:47.963Z,100882.03
2022-09-07T10:44:34.835Z,100883.41
2022-09-07T10:45:43.135Z,100877.44
2022-09-07T10:47:00.402Z,100890.84
2022-09-07T10:48:14.262Z,100888.66
2022-09-07T10:49:27.792Z,100883.41
2022-09-07T10:50:34.383Z,100880.97
2022-09-07T10:51:36.155Z,100876.09
2022-09-07T10:52:52.296Z,100870.97
2022-09-07T10:55:32.273Z,100874.47
2022-09-07T10:56:36.134Z,100875.34
2022-09-07T10:57:49.501Z,100870.78
2022-09-07T10:59:12.799Z,100867.78
2022-09-07T11:00:18.426Z,100871.56
2022-09-07T11:01:25.684Z,100875.09
2022-09-07T11:02:27.525Z,100867.69
2022-09-07T11:04:10.450Z,100872.19
2022-09-07T11:05:16.394Z,100880.13
2022-09-07T11:06:22.112Z,100877.81
2022-09-07T11:07:33.073Z,100877.50
2022-09-07T11:10:17.174Z,100870.31
2022-09-07T11:12:57.261Z,100867.56
2022-09-07T11:14:12.860Z,100861.13
2022-09-07T11:15:20.985Z,100858.50
2022-09-07T11:17:52.781Z,100853.66
2022-09-07T11:20:44.661Z,100860.22
2022-09-07T11:21:56.992Z,100856.16
2022-09-07T11:23:19.939Z,100861.28
2022-09-07T11:24:30.503Z,100864.75
2022-09-07T11:25:46.601Z,100861.03
2022-09-07T11:26:48.843Z,100856.44
2022-09-07T11:27:56.083Z,100861.03
2022-09-07T11:29:31.621Z,100855.31
2022-09-07T11:30:38.148Z,100853.97
2022-09-07T11:31:46.254Z,100855.31
2022-09-07T11:32:53.652Z,100841.16
2022-09-07T11:35:30.594Z,100838.16
2022-09-07T11:36:36.452Z,100854.16
2022-09-07T11:37:46.845Z,100848.03
2022-09-07T11:38:56.878Z,100837.31
2022-09-07T11:40:07.917Z,100847.44
2022-09-07T11:41:15.430Z,100842.72
2022-09-07T11:42:43.579Z,100850.25
2022-09-07T11:43:51.521Z,100845.50
2022-09-07T11:44:58.082Z,100844.97
2022-09-07T11:46:22.799Z,100840.09
2022-09-07T11:47:44.710Z,100837.22
2022-09-07T11:48:48.623Z,100830.63
2022-09-07T11:49:59.379Z,100829.94
2022-09-07T11:51:06.455Z,100826.22
2022-09-07T11:52:12.431Z,100826.22
2022-09-07T11:53:21.579Z,100822.53
2022-09-07T11:54:25.918Z,100815.72
2022-09-07T11:55:29.460Z,100826.41
2022-09-07T11:56:36.966Z,100824.25
2022-09-07T11:57:38.752Z,100826.19
2022-09-07T11:58:52.350Z,100825.03
2022-09-07T12:00:23.049Z,100831.41
2022-09-07T12:01:33.720Z,100824.16
2022-09-07T12:02:59.813Z,100827.28
2022-09-07T12:04:13.256Z,100826.03
2022-09-07T12:05:19.612Z,100817.72
2022-09-07T12:06:24.499Z,100816.00
2022-09-07T12:07:49.758Z,100834.09
2022-09-07T12:08:57.496Z,100819.41
2022-09-07T12:10:20.961Z,100835.06
2022-09-07T12:11:23.599Z,100816.44
2022-09-07T12:12:46.796Z,100821.03
2022-09-07T12:13:54.622Z,100822.50
2022-09-07T12:15:17.890Z,100821.44
2022-09-07T12:16:19.817Z,100821.66
2022-09-07T12:17:24.235Z,100830.34
2022-09-07T12:18:32.794Z,100821.34
2022-09-07T12:19:37.353Z,100824.59
2022-09-07T12:20:46.502Z,100817.16
2022-09-07T12:21:54.850Z,100824.94
2022-09-07T12:23:04.899Z,100812.91
2022-09-07T12:24:28.330Z,100822.63
2022-09-07T12:25:33.469Z,100827.75
2022-09-07T12:26:35.715Z,100816.28
2022-09-07T12:27:41.335Z,100823.47
2022-09-07T12:28:46.942Z,100815.56
2022-09-07T12:30:01.809Z,100815.16
2022-09-07T12:31:09.636Z,100810.03
2022-09-07T12:33:39.378Z,100800.78
2022-09-07T12:34:51.320Z,100806.78
2022-09-07T12:35:59.020Z,100802.53
2022-09-07T12:37:01.687Z,100808.53
2022-09-07T12:38:21.377Z,100798.03
2022-09-07T12:39:29.166Z,100807.22
2022-09-07T12:40:34.005Z,100798.75
2022-09-07T12:41:47.357Z,100805.91
2022-09-07T12:42:49.376Z,100803.53
2022-09-07T12:43:55.511Z,100787.19
2022-09-07T12:45:18.651Z,100800.66
2022-09-07T12:46:20.425Z,100791.94
2022-09-07T12:47:29.830Z,100781.75
2022-09-07T12:48:34.404Z,100790.06
2022-09-07T12:49:57.493Z,100793.44
2022-09-07T12:50:59.337Z,100774.56
2022-09-07T12:52:15.586Z,100787.09
2022-09-07T12:53:39.044Z,100776.53
2022-09-07T12:55:04.385Z,100772.81
2022-09-07T12:56:29.063Z,100754.75
2022-09-07T12:57:45.222Z,100777.88
2022-09-07T12:58:50.092Z,100778.06
2022-09-07T13:00:13.350Z,100767.03
2022-09-07T13:01:30.519Z,100776.59
2022-09-07T13:02:35.761Z,100765.72
2022-09-07T13:03:55.857Z,100768.06
2022-09-07T13:05:18.491Z,100767.66
2022-09-07T13:08:09.641Z,100769.72
2022-09-07T13:09:14.450Z,100761.03
2022-09-07T13:10:37.709Z,100764.44
2022-09-07T13:11:39.877Z,100764.44
2022-09-07T13:12:54.215Z,100755.81
2022-09-07T13:14:08.714Z,100756.78
2022-09-07T13:15:32.438Z,100763.69
2022-09-07T13:18:03.591Z,100759.88
2022-09-07T13:19:08.792Z,100760.56
2022-09-07T13:20:10.524Z,100756.84
2022-09-07T13:21:16.466Z,100757.00
2022-09-07T13:22:30.475Z,100744.94
2022-09-07T13:23:34.858Z,100753.78
2022-09-07T13:24:46.448Z,100751.75
2022-09-07T13:25:52.328Z,100757.88
2022-09-07T13:26:58.567Z,100747.28
2022-09-07T13:28:03.933Z,100751.03
2022-09-07T13:29:05.846Z,100749.84
2022-09-07T13:30:19.798Z,100745.97
2022-09-07T13:31:30.057Z,100755.47
2022-09-07T13:33:57.280Z,100746.69
2022-09-07T13:35:01.658Z,100734.09
2022-09-07T13:36:16.836Z,100748.56
2022-09-07T13:37:19.861Z,100741.47
2022-09-07T13:38:24.975Z,100741.09
2022-09-07T13:39:26.946Z,100739.69